首页
METAR-TAF:

METAR-TAF

机场 :

Quillayute Airport

Forks, 华盛顿, 美国

纬度: 47-56-15N, 经度: 124-33-18W, 海拔: 59米

当前天气观测

该预报发布于1小时和1分钟前的04:53 UTC
风速8节,风向西转西北
温度 7°C
湿度 81%
气压 1009 hPa
能見度: 16.1公里
少量云层高于4700英尺
散云层高于10000英尺

METAR: KUIL 120453Z AUTO 29008KT 10SM FEW047 SCT100 07/04 A2981 RMK AO2 PK WND 27027/0418 RAB20E40 SLP096 P0000 T00720039 $

时间: 21:54 (05:54 UTC)


TAF: 丢失

超过4000个机场的气象观测和天气预报(METAR&TAF报告)。

可查询的气象台以黄色和红色小点在地图上表示。

将鼠标移到小点上方,可查看气象台名称。

然后点击查看天气观测和预报。

如需切换地图:点击带黑十字的绿色按钮放大地图;点击带横线的绿色按钮缩小地图;或者点击绿色箭头查看邻近地区的地图。


METAR-TAF: